Nearby METAR Reports

 

K2W6 - St Marys (duke), Maryland, USA
Distance from station: ESE 19mi, 31km
Updated: Wed, 26-Feb-2020 4:27am EST

 Wind from calm
Wind: Calm
Temperature: 48°F , 9°C
Dew Point: 46°F , 8°C
Humidity: 94%
Barometer: 29.88 inHg , 1011.9 hPa
2020/02/26 09:27 K2W6 260927Z AUTO 00000KT 09/08 A2988 RMK AO1
KADW - Andrews Afb, Maryland, USA
Distance from station: 0 27mi, 43km
Updated: Wed, 26-Feb-2020 4:47am EST
unable to load KADW data RC=
unable to load KADW data RC=
 
 
KNHK - Patuxent River, Maryland, USA
Distance from station: ESE 28mi, 45km
Updated: Wed, 26-Feb-2020 4:21am EST
Mist, Overcast
Mist, Overcast
 Wind from calm
Wind: Calm
Temperature: 48°F , 9°C
Dew Point: 48°F , 9°C
Humidity: 100%
Barometer: 29.86 inHg , 1011.2 hPa
Summary: Mist
Clouds: Overcast
Visibility: 4 miles , 6 km
Cloud details: Partly cloudy 200 ft
Mostly cloudy 1800 ft
Overcast 2400 ft
2020/02/26 09:21 KNHK 260921Z AUTO 00000KT 4SM BR SCT002 BKN018 OVC024 09/09 A2986 RMK AO2 T00940089 $
KDCA - Washington/Natl, Washington D.c., USA
Distance from station: NNW 30mi, 49km
Updated: Wed, 26-Feb-2020 4:30am EST
Mist, Overcast
Mist, Overcast
 Wind from NE
Wind: NE 5 mph , 7 km/h
Temperature: 50°F , 10°C
Wind Chill: 48°F , 9°C
Dew Point: 48°F , 9°C
Humidity: 94%
Barometer: 29.86 inHg , 1011.2 hPa
Summary: Mist
Clouds: Overcast
Visibility: 6 miles , 10 km
Cloud details: Partly cloudy 700 ft
Overcast 1500 ft
2020/02/26 09:30 KDCA 260930Z 04004KT 6SM BR SCT007 OVC015 10/09 A2986 RMK AO2 T01000094
 
KNUI - Webster Naval, Maryland, USA
Distance from station: SE 31mi, 49km
Updated: Wed, 26-Feb-2020 3:53am EST
Mist, Overcast
Mist, Overcast
 Wind from calm
Wind: Calm
Temperature: 52°F , 11°C
Dew Point: 48°F , 9°C
Humidity: 88%
Barometer: 29.84 inHg , 1010.5 hPa
Summary: Mist
Clouds: Overcast
Visibility: 5 miles , 8 km
Cloud details: Overcast 1900 ft
2020/02/26 08:53 KNUI 260853Z AUTO 00000KT 5SM BR OVC019 11/09 A2984 RMK AO2 SLP105 T01110089 55003
KNAK - Annapolis/Naval, Maryland, USA
Distance from station: NNE 44mi, 70km
Updated: Wed, 26-Feb-2020 3:54am EST
Mist, Overcast
Mist, Overcast
 Wind from calm
Wind: Calm
Temperature: 48°F , 9°C
Dew Point: 46°F , 8°C
Humidity: 94%
Barometer: 29.86 inHg , 1011.2 hPa
Summary: Mist
Clouds: Overcast
Visibility: 4 miles , 6 km
Cloud details: Overcast 500 ft
2020/02/26 08:54 KNAK 260854Z AUTO 00000KT 4SM BR OVC005 09/08 A2986 RMK AO2 SLP114 T00890078 55002